Time;durP1;ratioP1;P1;durP2;ratioP2;P2;SDS_P1;SDS_P2;PMS_P1;PMS_P2;Temp;Humidity;BMP_temperature;BMP_pressure;BME280_temperature;BME280_humidity;BME280_pressure;Samples;Min_cycle;Max_cycle;Signal;HPM_P1;HPM_P2
2023/02/28 00:00:10;;;;;;;4.97;2.80;;;-1.10;99.90;;;;;;5017634;28;20054;-87
2023/02/28 00:02:40;;;;;;;13.70;3.63;;;-1.10;99.90;;;;;;5016428;28;20081;-87
2023/02/28 00:05:07;;;;;;;3.58;3.17;;;-1.10;99.90;;;;;;5019423;28;20032;-87
2023/02/28 00:07:33;;;;;;;3.75;3.22;;;-1.10;99.90;;;;;;5016150;28;20129;-88
2023/02/28 00:09:59;;;;;;;3.38;3.08;;;-1.10;99.90;;;;;;5015551;28;20034;-87
2023/02/28 00:12:26;;;;;;;4.13;3.30;;;-1.10;99.90;;;;;;5018027;28;20025;-89
2023/02/28 00:14:52;;;;;;;4.35;3.83;;;-1.10;99.90;;;;;;5018601;28;20072;-87
2023/02/28 00:17:20;;;;;;;4.93;3.58;;;-1.10;99.90;;;;;;5019794;28;20437;-86
2023/02/28 00:19:49;;;;;;;;;;;-1.10;99.90;;;;;;5016663;28;20041;-87
2023/02/28 00:22:21;;;;;;;6.60;3.92;;;-1.10;99.90;;;;;;5024085;28;19924;-88
2023/02/28 00:24:47;;;;;;;4.68;3.25;;;-1.20;99.90;;;;;;5018247;28;20037;-87
2023/02/28 00:27:14;;;;;;;4.65;3.70;;;-1.20;99.90;;;;;;5019972;28;20034;-87
2023/02/28 00:29:40;;;;;;;4.43;3.90;;;-1.30;99.90;;;;;;5024486;28;20097;-87
2023/02/28 00:32:07;;;;;;;4.63;4.22;;;-1.30;99.90;;;;;;5029495;28;20065;-89
2023/02/28 00:34:37;;;;;;;5.15;4.28;;;-1.30;99.90;;;;;;5033432;28;20028;-86
2023/02/28 00:37:08;;;;;;;5.00;3.33;;;-1.30;99.90;;;;;;5021709;28;20113;-89
2023/02/28 00:39:36;;;;;;;4.65;4.20;;;-1.30;99.90;;;;;;5016627;28;20042;-88
2023/02/28 00:42:02;;;;;;;5.83;4.00;;;-1.40;99.90;;;;;;5023845;28;20135;-87
2023/02/28 00:44:28;;;;;;;5.20;3.80;;;-1.40;99.90;;;;;;5023546;28;20029;-88
2023/02/28 00:46:55;;;;;;;6.90;4.00;;;-1.40;99.90;;;;;;5016696;28;20053;-88
2023/02/28 00:49:21;;;;;;;5.50;4.55;;;-1.40;99.90;;;;;;5013098;28;20675;-88
2023/02/28 00:51:47;;;;;;;5.70;4.47;;;-1.40;99.90;;;;;;5019861;28;20042;-88
2023/02/28 00:54:12;;;;;;;8.05;4.35;;;-1.40;99.90;;;;;;5024267;28;20026;-88
2023/02/28 00:56:39;;;;;;;4.63;3.75;;;-1.50;99.90;;;;;;5014035;28;20458;-87
2023/02/28 00:59:04;;;;;;;6.10;4.18;;;-1.50;99.90;;;;;;5017370;28;20034;-87
2023/02/28 01:01:30;;;;;;;4.53;4.05;;;-1.40;99.90;;;;;;5021242;28;20067;-87
2023/02/28 01:03:56;;;;;;;6.13;4.28;;;-1.40;99.90;;;;;;5026205;28;20037;-87
2023/02/28 01:06:22;;;;;;;4.82;3.97;;;-1.50;99.90;;;;;;5021544;28;20026;-88
2023/02/28 01:08:47;;;;;;;6.22;3.58;;;-1.50;99.90;;;;;;5022928;28;20052;-89
2023/02/28 01:11:15;;;;;;;5.65;3.92;;;-1.50;99.90;;;;;;5029153;28;20029;-89
2023/02/28 01:13:42;;;;;;;5.10;4.28;;;-1.50;99.90;;;;;;5026533;28;20065;-88
2023/02/28 01:16:08;;;;;;;5.30;3.85;;;-1.50;99.90;;;;;;5018686;28;20068;-88
2023/02/28 01:18:35;;;;;;;4.40;3.97;;;-1.50;99.90;;;;;;5022277;28;20033;-88
2023/02/28 01:21:08;;;;;;;4.85;3.67;;;-1.50;99.90;;;;;;5024399;28;20030;-88
2023/02/28 01:23:34;;;;;;;5.03;3.83;;;-1.50;99.90;;;;;;5028032;28;20034;-87
2023/02/28 01:26:07;;;;;;;5.63;3.85;;;-1.50;99.90;;;;;;5024119;28;20037;-89
2023/02/28 01:28:33;;;;;;;6.60;4.63;;;-1.60;99.90;;;;;;5026179;28;20041;-88
2023/02/28 01:30:59;;;;;;;5.95;4.03;;;-1.60;99.90;;;;;;5020939;28;20045;-87
2023/02/28 01:33:25;;;;;;;4.35;3.85;;;-1.60;99.90;;;;;;5025205;28;20044;-87
2023/02/28 01:35:58;;;;;;;5.40;4.00;;;-1.60;99.90;;;;;;5027663;28;20277;-87
2023/02/28 01:38:24;;;;;;;3.92;3.53;;;-1.60;99.90;;;;;;5027713;28;20029;-89
2023/02/28 01:40:50;;;;;;;5.57;4.07;;;-1.60;99.90;;;;;;5023073;28;20069;-89
2023/02/28 01:43:28;;;;;;;6.35;3.83;;;-1.60;99.90;;;;;;5021525;28;20482;-89
2023/02/28 01:45:55;;;;;;;5.72;4.25;;;-1.60;99.90;;;;;;5019328;28;20041;-88
2023/02/28 01:48:29;;;;;;;5.20;4.00;;;-1.60;99.90;;;;;;5019584;28;20029;-89
2023/02/28 01:50:59;;;;;;;3.55;3.25;;;-1.70;99.90;;;;;;5018890;28;20360;-87
2023/02/28 01:53:33;;;;;;;4.53;3.67;;;-1.70;99.90;;;;;;5019019;28;20035;-88
2023/02/28 01:55:59;;;;;;;5.32;3.70;;;-1.60;99.90;;;;;;5024891;28;20037;-88
2023/02/28 01:58:25;;;;;;;6.63;3.90;;;-1.70;99.90;;;;;;5023328;28;20048;-87
2023/02/28 02:00:51;;;;;;;3.63;3.17;;;-1.70;99.90;;;;;;5020708;28;20062;-85
2023/02/28 02:03:20;;;;;;;4.97;4.13;;;-1.70;99.90;;;;;;5025886;28;20030;-86
2023/02/28 02:05:48;;;;;;;;;;;-1.70;99.90;;;;;;5024891;28;20037;-85
2023/02/28 02:08:22;;;;;;;4.50;4.10;;;-1.70;99.90;;;;;;5022700;28;19927;-85
2023/02/28 02:10:58;;;;;;;4.93;4.18;;;-1.70;99.90;;;;;;5021250;28;20117;-85
2023/02/28 02:13:46;;;;;;;7.35;4.15;;;-1.70;99.90;;;;;;5026793;28;20043;-85
2023/02/28 02:16:30;;;;;;;4.97;3.90;;;-1.70;99.90;;;;;;5029645;28;20029;-85
2023/02/28 02:19:42;;;;;;;6.88;4.00;;;-1.70;99.90;;;;;;5025646;28;20963;-85
2023/02/28 02:22:41;;;;;;;4.45;3.70;;;-1.70;99.90;;;;;;5026440;28;20133;-85
2023/02/28 02:25:44;;;;;;;4.63;3.95;;;-1.70;99.90;;;;;;5023876;28;20022;-85
2023/02/28 02:28:43;;;;;;;6.40;4.35;;;-1.80;99.90;;;;;;5026056;28;20035;-85
2023/02/28 02:31:28;;;;;;;4.57;3.97;;;-1.80;99.90;;;;;;5020894;28;20072;-84
2023/02/28 02:34:18;;;;;;;5.05;4.53;;;-1.80;99.90;;;;;;5021712;28;20022;-85
2023/02/28 02:37:12;;;;;;;4.95;4.13;;;-1.80;99.90;;;;;;5020775;28;20054;-85
2023/02/28 02:39:55;;;;;;;4.97;4.18;;;-1.80;99.90;;;;;;5013286;28;20495;-85
2023/02/28 02:42:29;;;;;;;4.07;3.40;;;-1.80;99.90;;;;;;5023013;28;20049;-86
2023/02/28 02:45:17;;;;;;;6.13;4.43;;;-1.80;99.90;;;;;;5023307;28;20049;-85
2023/02/28 02:47:45;;;;;;;5.90;4.40;;;-1.80;99.90;;;;;;5017980;28;20038;-85
2023/02/28 02:50:16;;;;;;;6.15;4.43;;;-1.80;99.90;;;;;;5019600;28;20087;-85
2023/02/28 02:52:50;;;;;;;6.95;4.55;;;-1.80;99.90;;;;;;5017509;28;20038;-85
2023/02/28 02:55:18;;;;;;;6.47;4.18;;;-1.80;99.90;;;;;;5023546;28;20050;-86
2023/02/28 02:57:59;;;;;;;4.25;3.72;;;-1.80;99.90;;;;;;5019406;28;20113;-85
2023/02/28 03:00:34;;;;;;;4.25;3.78;;;-1.80;99.90;;;;;;5019758;28;20079;-85
2023/02/28 03:03:02;;;;;;;5.65;4.15;;;-1.90;99.90;;;;;;5033066;28;20091;-84
2023/02/28 03:05:39;;;;;;;6.72;5.03;;;-1.90;99.90;;;;;;5025256;28;20033;-85
2023/02/28 03:08:08;;;;;;;4.03;3.30;;;-1.90;99.90;;;;;;5020616;28;20034;-85
2023/02/28 03:10:40;;;;;;;5.07;4.57;;;-1.80;99.90;;;;;;5021557;28;20038;-85
2023/02/28 03:13:31;;;;;;;4.93;3.63;;;-1.80;99.90;;;;;;5022301;28;20493;-84
2023/02/28 03:16:36;;;;;;;5.18;4.50;;;-1.80;99.90;;;;;;5019801;28;20040;-86
2023/02/28 03:19:10;;;;;;;8.02;4.85;;;-1.80;99.90;;;;;;5023819;28;20025;-85
2023/02/28 03:21:40;;;;;;;6.60;4.65;;;-1.90;99.90;;;;;;5027293;28;20021;-85
2023/02/28 03:24:34;;;;;;;5.88;4.43;;;-1.80;99.90;;;;;;5027022;28;20462;-85
2023/02/28 03:27:35;;;;;;;5.50;4.20;;;-1.80;99.90;;;;;;5021130;28;20037;-85
2023/02/28 03:30:24;;;;;;;4.95;4.20;;;-1.90;99.90;;;;;;5035874;28;20043;-85
2023/02/28 03:33:14;;;;;;;8.10;4.63;;;-1.80;99.90;;;;;;5023130;28;20056;-85
2023/02/28 03:35:48;;;;;;;6.97;4.43;;;-1.80;99.90;;;;;;5022809;28;20061;-85
2023/02/28 03:38:31;;;;;;;7.47;4.72;;;-1.90;99.90;;;;;;5025517;28;20029;-85
2023/02/28 03:41:18;;;;;;;7.18;4.80;;;-1.90;99.90;;;;;;5027985;28;20033;-85
2023/02/28 03:43:57;;;;;;;5.75;5.25;;;-1.90;99.90;;;;;;5016338;28;20037;-85
2023/02/28 03:46:26;;;;;;;8.80;4.78;;;-1.90;99.90;;;;;;5030352;28;20018;-85
2023/02/28 03:49:03;;;;;;;5.65;4.05;;;-1.80;99.90;;;;;;5023101;28;20057;-86
2023/02/28 03:51:31;;;;;;;6.43;4.70;;;-1.80;99.90;;;;;;5028373;28;20030;-85
2023/02/28 03:54:03;;;;;;;6.50;5.03;;;-1.80;99.90;;;;;;5031241;28;20029;-85
2023/02/28 03:56:40;;;;;;;10.60;4.70;;;-1.80;99.90;;;;;;5024324;28;20030;-85
2023/02/28 03:59:26;;;;;;;6.47;5.13;;;-1.80;99.90;;;;;;5021085;28;20034;-85
2023/02/28 04:01:52;;;;;;;6.57;4.63;;;-1.80;99.90;;;;;;5019292;28;20022;-85
2023/02/28 04:04:18;;;;;;;7.13;4.47;;;-1.80;99.90;;;;;;5026353;28;20021;-85
2023/02/28 04:06:44;;;;;;;8.05;5.30;;;-1.80;99.90;;;;;;5027695;28;20064;-85
2023/02/28 04:09:14;;;;;;;6.60;4.45;;;-1.90;99.90;;;;;;5034871;28;20029;-85
2023/02/28 04:11:51;;;;;;;7.07;5.07;;;-1.90;99.90;;;;;;5024726;28;20541;-85
2023/02/28 04:14:17;;;;;;;7.05;4.88;;;-1.90;99.90;;;;;;5026990;28;20032;-85
2023/02/28 04:16:43;;;;;;;6.72;4.70;;;-1.90;99.90;;;;;;5020477;28;20060;-85
2023/02/28 04:19:11;;;;;;;6.07;4.72;;;-1.90;99.90;;;;;;5016151;28;20022;-85
2023/02/28 04:21:40;;;;;;;6.10;4.78;;;-1.90;99.90;;;;;;5018393;28;20082;-85
2023/02/28 04:24:08;;;;;;;6.55;4.82;;;-1.90;99.90;;;;;;5029720;28;20066;-86
2023/02/28 04:26:36;;;;;;;5.85;5.10;;;-1.90;99.90;;;;;;5024702;28;20026;-85
2023/02/28 04:29:04;;;;;;;7.95;4.90;;;-1.90;99.90;;;;;;5022418;28;20034;-85
2023/02/28 04:31:30;;;;;;;6.65;4.55;;;-1.90;99.90;;;;;;5017093;28;20060;-84
2023/02/28 04:33:56;;;;;;;7.13;4.93;;;-1.90;99.90;;;;;;5017760;28;20055;-85
2023/02/28 04:36:23;;;;;;;7.28;5.03;;;-1.90;99.90;;;;;;5023360;28;20223;-85
2023/02/28 04:38:48;;;;;;;8.85;5.68;;;-1.90;99.90;;;;;;5023224;28;20025;-85
2023/02/28 04:41:14;;;;;;;7.60;4.97;;;-1.90;99.90;;;;;;5027076;28;20068;-85
2023/02/28 04:43:40;;;;;;;7.75;5.00;;;-1.90;99.90;;;;;;5024277;28;20593;-85
2023/02/28 04:46:06;;;;;;;5.95;4.35;;;-1.90;99.90;;;;;;5023516;28;20038;-85
2023/02/28 04:48:35;;;;;;;6.15;4.97;;;-1.90;99.90;;;;;;5022225;28;20033;-85
2023/02/28 04:51:05;;;;;;;8.73;5.38;;;-1.90;99.90;;;;;;5019699;28;20037;-84
2023/02/28 04:53:32;;;;;;;7.57;4.78;;;-1.90;99.90;;;;;;5022712;28;20109;-85
2023/02/28 04:55:58;;;;;;;12.07;6.07;;;-1.90;99.90;;;;;;5026630;28;20038;-84
2023/02/28 04:58:24;;;;;;;6.43;5.05;;;-2.00;99.90;;;;;;5022635;28;20048;-84
2023/02/28 05:00:50;;;;;;;5.45;4.78;;;-1.90;99.90;;;;;;5020053;28;20038;-85
2023/02/28 05:03:16;;;;;;;8.70;5.70;;;-1.90;99.90;;;;;;5021077;28;20026;-85
2023/02/28 05:05:42;;;;;;;7.60;5.43;;;-2.00;99.90;;;;;;5016928;28;20042;-84
2023/02/28 05:08:09;;;;;;;8.60;5.80;;;-1.90;99.90;;;;;;5016307;28;20049;-85
2023/02/28 05:10:35;;;;;;;8.98;5.68;;;-2.00;99.90;;;;;;5026942;28;20033;-84
2023/02/28 05:13:01;;;;;;;10.40;5.53;;;-2.00;99.90;;;;;;5021905;28;20088;-85
2023/02/28 05:15:26;;;;;;;9.23;5.55;;;-2.00;99.90;;;;;;5023455;28;20018;-85
2023/02/28 05:17:52;;;;;;;6.40;5.50;;;-2.00;99.90;;;;;;5023701;28;20033;-85
2023/02/28 05:20:18;;;;;;;7.75;5.68;;;-2.00;99.90;;;;;;5020176;28;20033;-84
2023/02/28 05:22:44;;;;;;;7.30;5.80;;;-2.00;99.90;;;;;;5014625;28;20533;-84
2023/02/28 05:25:19;;;;;;;7.28;5.70;;;-2.00;99.90;;;;;;5023147;28;20034;-84
2023/02/28 05:28:04;;;;;;;6.93;4.93;;;-2.00;99.90;;;;;;5014529;28;20109;-85
2023/02/28 05:30:31;;;;;;;7.38;6.03;;;-2.00;99.90;;;;;;5018678;28;20455;-84
2023/02/28 05:32:57;;;;;;;9.38;6.10;;;-2.00;99.90;;;;;;5029929;28;20046;-84
2023/02/28 05:35:24;;;;;;;9.07;6.50;;;-2.10;99.90;;;;;;5029115;28;20046;-85
2023/02/28 05:37:49;;;;;;;9.60;5.05;;;-2.10;99.90;;;;;;5017732;28;20056;-85
2023/02/28 05:40:16;;;;;;;7.05;5.10;;;-2.10;99.90;;;;;;5017369;28;20085;-84
2023/02/28 05:42:41;;;;;;;6.50;4.50;;;-2.10;99.90;;;;;;5020790;28;20715;-84
2023/02/28 05:45:08;;;;;;;7.50;5.50;;;-2.10;99.90;;;;;;5025179;28;20019;-85
2023/02/28 05:47:34;;;;;;;8.35;5.88;;;-2.10;99.90;;;;;;5024911;28;20049;-85
2023/02/28 05:50:00;;;;;;;6.97;5.25;;;-2.10;99.90;;;;;;5023445;28;20042;-85
2023/02/28 05:52:27;;;;;;;8.32;5.70;;;-2.10;99.90;;;;;;5032646;28;20128;-84
2023/02/28 05:54:53;;;;;;;9.40;6.20;;;-2.10;99.90;;;;;;5029242;28;20045;-85
2023/02/28 05:57:19;;;;;;;10.38;6.88;;;-2.10;99.90;;;;;;5010779;28;20106;-84
2023/02/28 05:59:45;;;;;;;8.50;5.45;;;-2.10;99.90;;;;;;5018454;28;20043;-84
2023/02/28 06:02:13;;;;;;;8.02;5.28;;;-2.10;99.90;;;;;;5015734;28;20037;-85
2023/02/28 06:04:40;;;;;;;10.63;5.38;;;-2.10;99.90;;;;;;5028339;28;20038;-85
2023/02/28 06:07:06;;;;;;;8.38;5.72;;;-2.10;99.90;;;;;;5020402;28;20041;-85
2023/02/28 06:09:32;;;;;;;11.77;6.95;;;-2.10;99.90;;;;;;5019118;28;20038;-85
2023/02/28 06:11:59;;;;;;;9.40;5.65;;;-2.10;99.90;;;;;;5030525;28;20077;-85
2023/02/28 06:14:25;;;;;;;10.38;6.93;;;-2.10;99.90;;;;;;5020102;28;20038;-85
2023/02/28 06:16:52;;;;;;;9.68;5.93;;;-2.10;99.90;;;;;;5030031;28;20037;-84
2023/02/28 06:19:18;;;;;;;9.18;6.47;;;-2.10;99.90;;;;;;5028707;28;20757;-85
2023/02/28 06:21:45;;;;;;;7.90;5.80;;;-2.10;99.90;;;;;;5029837;28;20372;-84
2023/02/28 06:24:11;;;;;;;9.80;5.93;;;-2.10;99.90;;;;;;5006371;28;20438;-84
2023/02/28 06:26:36;;;;;;;10.52;6.13;;;-2.10;99.90;;;;;;5029409;28;20029;-85
2023/02/28 06:29:03;;;;;;;7.72;5.18;;;-2.10;99.90;;;;;;5031238;28;20037;-84
2023/02/28 06:31:29;;;;;;;9.98;6.40;;;-2.10;99.90;;;;;;5014081;28;20034;-85
2023/02/28 06:33:55;;;;;;;10.23;5.95;;;-2.10;99.90;;;;;;5030110;28;20452;-86
2023/02/28 06:36:21;;;;;;;8.35;6.10;;;-2.10;99.90;;;;;;5028859;28;20069;-85
2023/02/28 06:38:51;;;;;;;8.70;5.57;;;-2.10;99.90;;;;;;5028323;28;20034;-86
2023/02/28 06:41:17;;;;;;;7.75;5.72;;;-2.10;99.90;;;;;;5032073;28;20026;-86
2023/02/28 06:43:44;;;;;;;9.38;5.80;;;-2.10;99.90;;;;;;5022524;28;20037;-86
2023/02/28 06:46:13;;;;;;;16.33;7.55;;;-2.00;99.90;;;;;;5024488;28;20474;-83
2023/02/28 06:48:40;;;;;;;10.07;6.50;;;-2.00;99.90;;;;;;5028804;28;20034;-85
2023/02/28 06:51:13;;;;;;;8.85;5.07;;;-2.00;99.90;;;;;;5028251;28;20045;-86
2023/02/28 06:53:38;;;;;;;8.18;6.18;;;-2.00;99.90;;;;;;5018133;28;20044;-85
2023/02/28 06:56:28;;;;;;;10.07;5.95;;;-2.00;99.90;;;;;;5031434;28;20034;-85
2023/02/28 06:58:55;;;;;;;8.52;6.20;;;-1.90;99.90;;;;;;5021463;28;20041;-86
2023/02/28 07:01:23;;;;;;;10.63;6.68;;;-1.90;99.90;;;;;;5021945;28;20034;-86
2023/02/28 07:03:51;;;;;;;9.00;6.20;;;-1.90;99.90;;;;;;5027793;28;20044;-86
2023/02/28 07:06:18;;;;;;;9.88;7.47;;;-1.90;99.90;;;;;;5024311;28;20064;-86
2023/02/28 07:08:44;;;;;;;9.88;6.97;;;-1.90;99.90;;;;;;5025995;28;20064;-86
2023/02/28 07:11:10;;;;;;;12.18;8.05;;;-1.90;99.90;;;;;;5025981;28;20027;-85
2023/02/28 07:13:36;;;;;;;10.90;7.53;;;-1.90;99.90;;;;;;5028324;28;20037;-85
2023/02/28 07:16:05;;;;;;;15.23;8.02;;;-1.90;99.90;;;;;;5019135;28;20057;-85
2023/02/28 07:18:30;;;;;;;11.02;7.13;;;-1.80;99.90;;;;;;5026463;28;20480;-85
2023/02/28 07:20:56;;;;;;;11.98;7.40;;;-1.90;99.90;;;;;;5015779;28;20113;-86
2023/02/28 07:23:23;;;;;;;8.88;5.88;;;-1.80;99.90;;;;;;5025047;28;20450;-87
2023/02/28 07:25:50;;;;;;;13.80;6.28;;;-1.80;99.90;;;;;;5022579;28;21617;-84
2023/02/28 07:28:16;;;;;;;11.23;7.73;;;-1.80;99.90;;;;;;5027533;28;20068;-86
2023/02/28 07:30:42;;;;;;;11.45;8.00;;;-1.80;99.90;;;;;;5032652;28;20037;-86
2023/02/28 07:33:08;;;;;;;14.55;7.45;;;-1.80;99.90;;;;;;5015505;28;20100;-85
2023/02/28 07:35:34;;;;;;;9.90;6.28;;;-1.80;99.90;;;;;;5033193;28;20073;-85
2023/02/28 07:38:00;;;;;;;10.57;6.68;;;-1.80;99.90;;;;;;5027744;28;20034;-86
2023/02/28 07:40:26;;;;;;;10.20;6.78;;;-1.80;99.90;;;;;;5022902;28;20030;-86
2023/02/28 07:42:51;;;;;;;9.30;4.78;;;-1.80;99.90;;;;;;5026857;28;20088;-86
2023/02/28 07:45:17;;;;;;;10.10;6.63;;;-1.70;99.90;;;;;;5017071;28;20045;-86
2023/02/28 07:47:44;;;;;;;9.57;6.22;;;-1.80;99.90;;;;;;5026031;28;20018;-86
2023/02/28 07:50:12;;;;;;;9.68;6.38;;;-1.80;99.90;;;;;;5029186;28;20018;-86
2023/02/28 07:52:39;;;;;;;8.13;5.70;;;-1.70;99.90;;;;;;5024207;28;20029;-86
2023/02/28 07:55:06;;;;;;;7.55;5.80;;;-1.70;99.90;;;;;;5026185;28;20040;-86
2023/02/28 07:57:32;;;;;;;9.10;6.63;;;-1.70;99.90;;;;;;5026001;28;20042;-86
2023/02/28 07:59:58;;;;;;;7.00;5.28;;;-1.60;99.90;;;;;;5021188;28;20041;-85
2023/02/28 08:02:24;;;;;;;7.88;5.10;;;-1.60;99.90;;;;;;5022402;28;20064;-87
2023/02/28 08:04:49;;;;;;;9.43;6.07;;;-1.50;99.90;;;;;;5019373;28;20033;-86
2023/02/28 08:07:16;;;;;;;10.90;6.25;;;-1.50;99.90;;;;;;5019065;28;20037;-86
2023/02/28 08:09:43;;;;;;;9.98;6.88;;;-1.50;99.90;;;;;;5017364;28;20029;-86
2023/02/28 08:12:10;;;;;;;12.10;7.32;;;-1.50;99.90;;;;;;5019079;28;20096;-87
2023/02/28 08:14:37;;;;;;;14.70;8.10;;;-1.40;99.90;;;;;;5025803;28;20030;-87
2023/02/28 08:17:04;;;;;;;14.35;9.50;;;-1.30;99.90;;;;;;5023391;28;20022;-87
2023/02/28 08:19:32;;;;;;;13.27;6.75;;;-1.30;99.90;;;;;;5028467;28;20029;-87
2023/02/28 08:21:59;;;;;;;10.30;7.15;;;-1.30;99.90;;;;;;5010999;28;20030;-88
2023/02/28 08:24:25;;;;;;;14.88;7.18;;;-1.20;99.90;;;;;;5014427;28;20037;-87
2023/02/28 08:26:51;;;;;;;14.40;8.35;;;-1.20;99.90;;;;;;5029203;28;20030;-86
2023/02/28 08:29:17;;;;;;;11.35;7.65;;;-1.20;99.90;;;;;;5018255;28;20030;-86
2023/02/28 08:31:44;;;;;;;11.55;6.88;;;-1.10;99.90;;;;;;5027423;28;20022;-87
2023/02/28 08:34:12;;;;;;;13.02;8.30;;;-1.10;99.90;;;;;;5027329;28;20057;-88
2023/02/28 08:36:41;;;;;;;9.10;5.97;;;-1.10;99.90;;;;;;5016054;28;20093;-88
2023/02/28 08:39:07;;;;;;;;;;;-1.10;99.90;;;;;;5030281;28;20092;-87
2023/02/28 08:41:33;;;;;;;13.93;8.43;;;-1.10;99.90;;;;;;5024793;28;19929;-86
2023/02/28 08:44:00;;;;;;;24.05;8.60;;;-1.00;99.90;;;;;;5022204;28;20053;-88
2023/02/28 08:46:26;;;;;;;13.98;8.25;;;-1.00;99.90;;;;;;5030406;28;20030;-87
2023/02/28 08:48:59;;;;;;;14.02;8.07;;;-1.10;99.90;;;;;;5021000;28;20046;-87
2023/02/28 08:51:26;;;;;;;13.25;7.15;;;-1.10;99.90;;;;;;5018087;28;20032;-88
2023/02/28 08:53:57;;;;;;;13.07;7.22;;;-1.00;99.90;;;;;;5032366;28;20017;-89
2023/02/28 08:56:23;;;;;;;11.20;6.88;;;-0.90;99.90;;;;;;5032217;28;20018;-89
2023/02/28 08:58:51;;;;;;;12.20;6.95;;;-0.80;99.90;;;;;;5013647;28;20069;-89
2023/02/28 09:01:20;;;;;;;12.60;8.23;;;-0.80;99.90;;;;;;5011241;28;20048;-89
2023/02/28 09:03:48;;;;;;;11.50;7.07;;;-0.80;99.90;;;;;;5031735;28;20037;-90
2023/02/28 09:06:17;;;;;;;15.32;8.90;;;-0.70;99.90;;;;;;5012343;28;20033;-90
2023/02/28 09:08:46;;;;;;;14.25;9.80;;;-0.80;99.90;;;;;;5007272;28;20042;-88
2023/02/28 09:11:14;;;;;;;14.77;8.73;;;-0.80;99.90;;;;;;5021589;28;20018;-89
2023/02/28 09:13:40;;;;;;;12.82;8.48;;;-0.80;99.90;;;;;;5003122;28;20104;-89
2023/02/28 09:16:10;;;;;;;12.35;7.85;;;-0.80;99.90;;;;;;5012549;28;20026;-90
2023/02/28 09:18:38;;;;;;;15.63;9.40;;;-0.80;99.90;;;;;;5009980;28;20088;-86
2023/02/28 09:21:16;;;;;;;15.75;9.65;;;-0.80;99.90;;;;;;5038282;28;20025;-89
2023/02/28 09:23:46;;;;;;;12.13;8.60;;;-0.70;99.90;;;;;;5032033;28;20042;-89
2023/02/28 09:26:25;;;;;;;14.50;8.98;;;-0.60;99.90;;;;;;5027572;28;20057;-89
2023/02/28 09:28:53;;;;;;;14.10;9.18;;;-0.50;99.90;;;;;;5033123;28;20579;-89
2023/02/28 09:31:22;;;;;;;13.88;8.48;;;-0.50;99.90;;;;;;5024908;28;20038;-88
2023/02/28 09:33:54;;;;;;;16.38;9.07;;;-0.50;99.90;;;;;;5035144;28;20068;-89
2023/02/28 09:36:22;;;;;;;14.18;8.98;;;-0.50;99.90;;;;;;5033223;28;20050;-88
2023/02/28 09:39:19;;;;;;;14.75;8.63;;;-0.50;99.90;;;;;;5031383;28;20046;-88
2023/02/28 09:41:50;;;;;;;14.05;8.07;;;-0.60;99.90;;;;;;5024345;28;20065;-89
2023/02/28 09:44:40;;;;;;;13.15;8.23;;;-0.50;99.90;;;;;;5039092;28;20034;-87
2023/02/28 09:47:50;;;;;;;12.05;7.25;;;-0.50;99.90;;;;;;5021827;28;20056;-87
2023/02/28 09:50:39;;;;;;;10.73;7.88;;;-0.40;99.90;;;;;;5028008;28;20038;-88
2023/02/28 09:53:27;;;;;;;10.90;7.97;;;-0.30;99.90;;;;;;5005282;28;20061;-87
2023/02/28 09:55:59;;;;;;;10.77;8.00;;;-0.20;99.90;;;;;;5032459;28;20319;-88
2023/02/28 09:58:51;;;;;;;11.73;7.07;;;-0.10;99.90;;;;;;5031367;28;20044;-87
2023/02/28 10:01:41;;;;;;;12.20;8.13;;;-0.10;99.90;;;;;;5026227;28;20089;-87
2023/02/28 10:04:41;;;;;;;11.60;7.20;;;-0.10;99.90;;;;;;5027802;28;20090;-88
2023/02/28 10:07:35;;;;;;;9.93;7.22;;;0.00;99.90;;;;;;5023302;28;20058;-90
2023/02/28 10:10:08;;;;;;;12.05;8.82;;;0.20;99.90;;;;;;5043995;28;20042;-88
2023/02/28 10:12:40;;;;;;;13.77;8.55;;;0.30;99.90;;;;;;5013540;28;20057;-89
2023/02/28 10:15:16;;;;;;;10.75;8.02;;;0.50;99.90;;;;;;4992749;28;20010;-88
2023/02/28 10:17:47;;;;;;;14.77;8.45;;;0.40;99.90;;;;;;5032097;28;20049;-90
2023/02/28 10:20:20;;;;;;;13.32;8.57;;;0.20;99.90;;;;;;5018546;28;20030;-88
2023/02/28 10:22:49;;;;;;;12.98;8.23;;;0.20;99.90;;;;;;5032523;28;20117;-89
2023/02/28 10:25:21;;;;;;;15.65;8.82;;;0.20;99.90;;;;;;5033908;28;20049;-89
2023/02/28 10:27:47;;;;;;;15.55;8.80;;;0.20;99.90;;;;;;5030584;28;20057;-90
2023/02/28 10:30:15;;;;;;;10.20;7.15;;;0.20;99.90;;;;;;5031720;28;20029;-90
2023/02/28 10:33:15;;;;;;;9.60;6.93;;;0.30;99.90;;;;;;5026087;28;20041;-89
2023/02/28 10:35:42;;;;;;;14.10;8.63;;;0.50;99.90;;;;;;5036031;28;20038;-87
2023/02/28 10:38:17;;;;;;;9.70;7.10;;;0.60;99.90;;;;;;5034369;28;20041;-88
2023/02/28 10:40:43;;;;;;;10.90;7.65;;;0.80;99.90;;;;;;5038457;28;20041;-89
2023/02/28 10:43:15;;;;;;;11.38;7.47;;;1.00;99.90;;;;;;5034066;28;20036;-89
2023/02/28 10:45:59;;;;;;;10.85;6.90;;;1.10;99.90;;;;;;5033961;28;20018;-88
2023/02/28 10:48:40;;;;;;;14.07;9.55;;;1.10;99.90;;;;;;5030011;28;20030;-88
2023/02/28 10:51:14;;;;;;;15.10;9.00;;;1.30;99.90;;;;;;5029714;28;20034;-88
2023/02/28 10:53:43;;;;;;;11.15;8.68;;;1.30;99.90;;;;;;5034074;28;20136;-87
2023/02/28 10:56:08;;;;;;;11.95;7.63;;;1.30;99.90;;;;;;5026320;28;20034;-88
2023/02/28 10:58:49;;;;;;;12.95;8.43;;;1.40;99.90;;;;;;5038748;28;20036;-88
2023/02/28 11:01:38;;;;;;;14.82;8.85;;;1.60;99.90;;;;;;5040276;28;20093;-85
2023/02/28 11:04:39;;;;;;;12.60;7.68;;;1.40;99.90;;;;;;5033723;28;20135;-85
2023/02/28 11:07:16;;;;;;;10.10;7.32;;;1.40;99.90;;;;;;5028761;28;20041;-85
2023/02/28 11:09:48;;;;;;;10.75;7.55;;;1.40;99.90;;;;;;5030507;28;20045;-86
2023/02/28 11:12:22;;;;;;;11.35;7.20;;;1.60;99.90;;;;;;5025070;28;20060;-86
2023/02/28 11:14:53;;;;;;;11.85;8.45;;;1.60;99.90;;;;;;5033367;28;20041;-85
2023/02/28 11:17:30;;;;;;;11.70;8.48;;;1.50;99.90;;;;;;5031787;28;20034;-85
2023/02/28 11:20:03;;;;;;;15.68;8.20;;;1.60;99.90;;;;;;5009495;28;20486;-85
2023/02/28 11:22:32;;;;;;;12.73;6.82;;;1.70;99.90;;;;;;5016253;28;20061;-86
2023/02/28 11:25:03;;;;;;;11.25;7.32;;;1.70;99.90;;;;;;5012761;28;20041;-87
2023/02/28 11:27:31;;;;;;;13.23;7.70;;;1.70;99.90;;;;;;5023968;28;20102;-86
2023/02/28 11:29:59;;;;;;;;;;;1.80;99.90;;;;;;5023912;28;20018;-86
2023/02/28 11:32:30;;;;;;;12.85;7.68;;;1.70;99.90;;;;;;5039427;28;19905;-85
2023/02/28 11:35:24;;;;;;;12.85;8.82;;;1.70;99.90;;;;;;5026677;28;20077;-86
2023/02/28 11:37:52;;;;;;;16.45;9.55;;;1.70;99.90;;;;;;5035114;28;20056;-85
2023/02/28 11:40:43;;;;;;;15.80;10.30;;;1.70;99.90;;;;;;5025064;28;20022;-86
2023/02/28 11:43:39;;;;;;;15.35;8.85;;;1.70;99.90;;;;;;5023195;28;20057;-86
2023/02/28 11:46:23;;;;;;;10.52;7.22;;;1.70;99.90;;;;;;5024538;28;20034;-84
2023/02/28 11:49:35;;;;;;;13.77;8.45;;;1.70;99.90;;;;;;5018845;28;20065;-85
2023/02/28 11:52:25;;;;;;;16.77;8.48;;;1.70;99.90;;;;;;5022193;28;20026;-85
2023/02/28 11:55:05;;;;;;;11.35;7.50;;;1.80;99.90;;;;;;5024018;28;20086;-85
2023/02/28 11:57:34;;;;;;;12.02;7.32;;;2.00;99.90;;;;;;5021209;28;20030;-86
2023/02/28 12:00:39;;;;;;;12.68;8.02;;;2.10;99.90;;;;;;5022236;28;20046;-85
2023/02/28 12:03:29;;;;;;;14.27;8.02;;;2.10;99.90;;;;;;5023728;28;20038;-86
2023/02/28 12:06:05;;;;;;;16.10;8.90;;;2.20;99.70;;;;;;5030212;28;20022;-86
2023/02/28 12:09:13;;;;;;;15.15;8.32;;;2.30;99.90;;;;;;5016934;28;20054;-86
2023/02/28 12:11:45;;;;;;;;;;;2.30;99.90;;;;;;5029981;28;20018;-86
2023/02/28 12:14:44;;;;;;;14.07;8.80;;;2.20;99.90;;;;;;5030391;28;19918;-86
2023/02/28 12:17:44;;;;;;;11.93;6.68;;;2.20;99.90;;;;;;5036351;28;20085;-86
2023/02/28 12:20:42;;;;;;;12.27;8.32;;;2.30;99.90;;;;;;5027400;28;20038;-86
2023/02/28 12:23:27;;;;;;;15.60;8.80;;;2.30;99.90;;;;;;5041151;28;20041;-87
2023/02/28 12:26:13;;;;;;;14.50;8.73;;;2.30;99.90;;;;;;5021544;28;20014;-87
2023/02/28 12:28:47;;;;;;;11.50;7.57;;;2.50;99.90;;;;;;5028398;28;20045;-87
2023/02/28 12:31:31;;;;;;;14.85;9.13;;;2.50;99.90;;;;;;5027784;28;20030;-88
2023/02/28 12:34:06;;;;;;;12.32;7.07;;;2.50;99.90;;;;;;5028285;28;20062;-88
2023/02/28 12:36:39;;;;;;;10.77;8.13;;;2.50;99.90;;;;;;5032935;28;20064;-88
2023/02/28 12:39:18;;;;;;;15.68;9.27;;;2.50;99.70;;;;;;5030749;28;20060;-88
2023/02/28 12:41:55;;;;;;;11.13;7.65;;;2.70;99.70;;;;;;5036045;28;20064;-88
2023/02/28 12:44:25;;;;;;;14.95;8.40;;;2.70;99.50;;;;;;5027038;28;20706;-89
2023/02/28 12:46:59;;;;;;;12.50;7.07;;;2.80;99.50;;;;;;5027727;28;20032;-88
2023/02/28 12:49:46;;;;;;;12.25;8.82;;;2.70;99.30;;;;;;5024807;28;20034;-87
2023/02/28 12:52:18;;;;;;;15.27;9.20;;;2.90;99.90;;;;;;5026501;28;20038;-88
2023/02/28 12:55:06;;;;;;;15.38;8.15;;;2.90;98.50;;;;;;5026984;28;20034;-87
2023/02/28 12:57:38;;;;;;;10.50;6.95;;;3.00;97.50;;;;;;5022431;28;20044;-87
2023/02/28 13:00:17;;;;;;;14.10;8.75;;;2.80;96.60;;;;;;5022530;28;20036;-89
2023/02/28 13:03:02;;;;;;;11.70;7.43;;;2.80;98.10;;;;;;5023399;28;20034;-89
2023/02/28 13:05:31;;;;;;;9.63;6.68;;;2.90;98.20;;;;;;5022365;28;20026;-88
2023/02/28 13:08:36;;;;;;;8.98;6.75;;;2.80;96.00;;;;;;5023350;28;20041;-88
2023/02/28 13:11:01;;;;;;;10.15;6.20;;;2.90;94.90;;;;;;5037179;28;20029;-88
2023/02/28 13:13:30;;;;;;;11.40;6.82;;;3.00;95.30;;;;;;5025483;28;20049;-89